sensor_id;sensor_type;location;lat;lon;timestamp;pressure;altitude;pressure_sealevel;temperature;humidity
19210;BME280;9738;51.654;14.238;2023-05-14T00:02:15;100976.38;;;10.93;100.00
19210;BME280;9738;51.654;14.238;2023-05-14T00:04:41;100977.66;;;10.89;100.00
19210;BME280;9738;51.654;14.238;2023-05-14T00:07:07;100971.47;;;10.88;100.00
19210;BME280;9738;51.654;14.238;2023-05-14T00:09:33;100962.88;;;10.85;100.00
19210;BME280;9738;51.654;14.238;2023-05-14T00:11:59;100970.19;;;10.82;100.00
19210;BME280;9738;51.654;14.238;2023-05-14T00:14:26;100960.75;;;10.78;100.00
19210;BME280;9738;51.654;14.238;2023-05-14T00:16:51;100961.06;;;10.75;100.00
19210;BME280;9738;51.654;14.238;2023-05-14T00:19:17;100961.59;;;10.69;100.00
19210;BME280;9738;51.654;14.238;2023-05-14T00:21:44;100966.50;;;10.64;100.00
19210;BME280;9738;51.654;14.238;2023-05-14T00:24:09;100957.09;;;10.60;100.00
19210;BME280;9738;51.654;14.238;2023-05-14T00:26:35;100961.03;;;10.56;100.00
19210;BME280;9738;51.654;14.238;2023-05-14T00:29:01;100954.41;;;10.50;100.00
19210;BME280;9738;51.654;14.238;2023-05-14T00:31:27;100949.03;;;10.41;100.00
19210;BME280;9738;51.654;14.238;2023-05-14T00:33:53;100948.34;;;10.39;100.00
19210;BME280;9738;51.654;14.238;2023-05-14T00:36:19;100944.00;;;10.38;100.00
19210;BME280;9738;51.654;14.238;2023-05-14T00:38:45;100948.50;;;10.37;100.00
19210;BME280;9738;51.654;14.238;2023-05-14T00:41:11;100942.56;;;10.34;100.00
19210;BME280;9738;51.654;14.238;2023-05-14T00:43:38;100940.44;;;10.27;100.00
19210;BME280;9738;51.654;14.238;2023-05-14T00:46:04;100933.69;;;10.23;100.00
19210;BME280;9738;51.654;14.238;2023-05-14T00:48:30;100938.69;;;10.17;100.00
19210;BME280;9738;51.654;14.238;2023-05-14T00:50:56;100937.53;;;10.10;100.00
19210;BME280;9738;51.654;14.238;2023-05-14T00:53:22;100942.59;;;10.03;100.00
19210;BME280;9738;51.654;14.238;2023-05-14T00:55:49;100948.06;;;10.01;100.00
19210;BME280;9738;51.654;14.238;2023-05-14T00:58:16;100951.88;;;9.99;100.00
19210;BME280;9738;51.654;14.238;2023-05-14T01:00:42;100947.06;;;9.93;100.00
19210;BME280;9738;51.654;14.238;2023-05-14T01:03:08;100951.81;;;9.89;100.00
19210;BME280;9738;51.654;14.238;2023-05-14T01:05:46;100953.19;;;9.84;100.00
19210;BME280;9738;51.654;14.238;2023-05-14T01:13:56;100943.88;;;9.68;100.00
19210;BME280;9738;51.654;14.238;2023-05-14T01:16:28;100944.84;;;9.67;100.00
19210;BME280;9738;51.654;14.238;2023-05-14T01:18:55;100940.47;;;9.66;100.00
19210;BME280;9738;51.654;14.238;2023-05-14T01:21:36;100941.59;;;9.64;100.00
19210;BME280;9738;51.654;14.238;2023-05-14T01:24:03;100936.63;;;9.59;100.00
19210;BME280;9738;51.654;14.238;2023-05-14T01:26:29;100930.84;;;9.54;100.00
19210;BME280;9738;51.654;14.238;2023-05-14T01:29:07;100934.09;;;9.48;100.00
19210;BME280;9738;51.654;14.238;2023-05-14T01:31:37;100930.13;;;9.42;100.00
19210;BME280;9738;51.654;14.238;2023-05-14T01:34:05;100933.16;;;9.38;100.00
19210;BME280;9738;51.654;14.238;2023-05-14T01:36:34;100933.94;;;9.29;100.00
19210;BME280;9738;51.654;14.238;2023-05-14T01:39:01;100930.94;;;9.22;100.00
19210;BME280;9738;51.654;14.238;2023-05-14T01:41:28;100933.19;;;9.17;100.00
19210;BME280;9738;51.654;14.238;2023-05-14T01:43:55;100933.69;;;9.11;100.00
19210;BME280;9738;51.654;14.238;2023-05-14T01:46:22;100929.75;;;9.05;100.00
19210;BME280;9738;51.654;14.238;2023-05-14T01:48:49;100939.22;;;8.98;100.00
19210;BME280;9738;51.654;14.238;2023-05-14T01:51:15;100929.06;;;8.92;100.00
19210;BME280;9738;51.654;14.238;2023-05-14T01:53:41;100929.31;;;8.89;100.00
19210;BME280;9738;51.654;14.238;2023-05-14T01:56:07;100923.53;;;8.84;100.00
19210;BME280;9738;51.654;14.238;2023-05-14T01:58:33;100927.44;;;8.80;100.00
19210;BME280;9738;51.654;14.238;2023-05-14T02:00:59;100923.47;;;8.74;100.00
19210;BME280;9738;51.654;14.238;2023-05-14T02:03:25;100922.84;;;8.71;100.00
19210;BME280;9738;51.654;14.238;2023-05-14T02:05:51;100919.97;;;8.74;100.00
19210;BME280;9738;51.654;14.238;2023-05-14T02:08:17;100919.34;;;8.70;100.00
19210;BME280;9738;51.654;14.238;2023-05-14T02:10:43;100923.38;;;8.64;100.00
19210;BME280;9738;51.654;14.238;2023-05-14T02:13:08;100929.09;;;8.60;100.00
19210;BME280;9738;51.654;14.238;2023-05-14T02:15:35;100922.59;;;8.53;100.00
19210;BME280;9738;51.654;14.238;2023-05-14T02:18:00;100919.59;;;8.46;100.00
19210;BME280;9738;51.654;14.238;2023-05-14T02:20:26;100917.44;;;8.40;100.00
19210;BME280;9738;51.654;14.238;2023-05-14T02:22:52;100919.59;;;8.35;100.00
19210;BME280;9738;51.654;14.238;2023-05-14T02:25:18;100911.97;;;8.30;100.00
19210;BME280;9738;51.654;14.238;2023-05-14T02:27:44;100915.97;;;8.25;100.00
19210;BME280;9738;51.654;14.238;2023-05-14T02:30:10;100918.28;;;8.18;100.00
19210;BME280;9738;51.654;14.238;2023-05-14T02:32:37;100922.28;;;8.12;100.00
19210;BME280;9738;51.654;14.238;2023-05-14T02:35:03;100920.50;;;8.02;100.00
19210;BME280;9738;51.654;14.238;2023-05-14T02:37:29;100916.50;;;7.96;100.00
19210;BME280;9738;51.654;14.238;2023-05-14T02:39:55;100917.72;;;7.92;100.00
19210;BME280;9738;51.654;14.238;2023-05-14T02:42:21;100911.56;;;7.92;100.00
19210;BME280;9738;51.654;14.238;2023-05-14T02:44:47;100915.06;;;7.92;100.00
19210;BME280;9738;51.654;14.238;2023-05-14T02:47:13;100915.19;;;7.91;100.00
19210;BME280;9738;51.654;14.238;2023-05-14T02:49:38;100922.06;;;7.93;100.00
19210;BME280;9738;51.654;14.238;2023-05-14T02:52:05;100917.84;;;7.91;100.00
19210;BME280;9738;51.654;14.238;2023-05-14T02:54:31;100913.59;;;7.88;100.00
19210;BME280;9738;51.654;14.238;2023-05-14T02:56:57;100909.66;;;7.82;100.00
19210;BME280;9738;51.654;14.238;2023-05-14T02:59:24;100913.63;;;7.77;100.00
19210;BME280;9738;51.654;14.238;2023-05-14T03:01:49;100913.97;;;7.72;100.00
19210;BME280;9738;51.654;14.238;2023-05-14T03:04:15;100905.66;;;7.66;100.00
19210;BME280;9738;51.654;14.238;2023-05-14T03:06:41;100899.72;;;7.62;100.00
19210;BME280;9738;51.654;14.238;2023-05-14T03:09:08;100894.78;;;7.57;100.00
19210;BME280;9738;51.654;14.238;2023-05-14T03:11:34;100900.31;;;7.54;100.00
19210;BME280;9738;51.654;14.238;2023-05-14T03:13:59;100894.78;;;7.46;100.00
19210;BME280;9738;51.654;14.238;2023-05-14T03:16:26;100901.41;;;7.41;100.00
19210;BME280;9738;51.654;14.238;2023-05-14T03:18:52;100897.66;;;7.32;100.00
19210;BME280;9738;51.654;14.238;2023-05-14T03:21:18;100901.50;;;7.28;100.00
19210;BME280;9738;51.654;14.238;2023-05-14T03:23:44;100900.03;;;7.24;100.00
19210;BME280;9738;51.654;14.238;2023-05-14T03:26:10;100905.84;;;7.18;100.00
19210;BME280;9738;51.654;14.238;2023-05-14T03:28:35;100902.72;;;7.13;100.00
19210;BME280;9738;51.654;14.238;2023-05-14T03:31:02;100906.56;;;7.09;100.00
19210;BME280;9738;51.654;14.238;2023-05-14T03:33:28;100905.94;;;7.05;100.00
19210;BME280;9738;51.654;14.238;2023-05-14T03:35:53;100902.69;;;7.01;100.00
19210;BME280;9738;51.654;14.238;2023-05-14T03:38:20;100903.88;;;6.97;100.00
19210;BME280;9738;51.654;14.238;2023-05-14T03:40:46;100896.16;;;6.94;100.00
19210;BME280;9738;51.654;14.238;2023-05-14T03:43:11;100889.25;;;6.92;100.00
19210;BME280;9738;51.654;14.238;2023-05-14T03:45:38;100890.22;;;6.91;100.00
19210;BME280;9738;51.654;14.238;2023-05-14T03:48:04;100897.09;;;6.93;100.00
19210;BME280;9738;51.654;14.238;2023-05-14T03:50:30;100897.00;;;6.95;100.00
19210;BME280;9738;51.654;14.238;2023-05-14T03:52:56;100900.50;;;6.95;100.00
19210;BME280;9738;51.654;14.238;2023-05-14T03:55:22;100898.56;;;6.97;100.00
19210;BME280;9738;51.654;14.238;2023-05-14T03:57:48;100897.50;;;7.00;100.00
19210;BME280;9738;51.654;14.238;2023-05-14T04:00:14;100896.41;;;7.02;100.00
19210;BME280;9738;51.654;14.238;2023-05-14T04:02:41;100890.84;;;7.05;100.00
19210;BME280;9738;51.654;14.238;2023-05-14T04:05:07;100876.38;;;7.10;100.00
19210;BME280;9738;51.654;14.238;2023-05-14T04:07:33;100886.78;;;7.13;100.00
19210;BME280;9738;51.654;14.238;2023-05-14T04:10:01;100889.06;;;7.17;100.00
19210;BME280;9738;51.654;14.238;2023-05-14T04:12:28;100881.84;;;7.19;100.00
19210;BME280;9738;51.654;14.238;2023-05-14T04:14:56;100877.81;;;7.25;100.00
19210;BME280;9738;51.654;14.238;2023-05-14T04:17:22;100878.44;;;7.28;100.00
19210;BME280;9738;51.654;14.238;2023-05-14T04:19:47;100881.72;;;7.32;100.00
19210;BME280;9738;51.654;14.238;2023-05-14T04:22:14;100870.84;;;7.35;100.00
19210;BME280;9738;51.654;14.238;2023-05-14T04:24:39;100874.84;;;7.41;100.00
19210;BME280;9738;51.654;14.238;2023-05-14T04:27:05;100870.09;;;7.44;100.00
19210;BME280;9738;51.654;14.238;2023-05-14T04:29:32;100872.19;;;7.52;100.00
19210;BME280;9738;51.654;14.238;2023-05-14T04:31:57;100872.53;;;7.58;100.00
19210;BME280;9738;51.654;14.238;2023-05-14T04:34:23;100866.00;;;7.63;100.00
19210;BME280;9738;51.654;14.238;2023-05-14T04:36:49;100872.50;;;7.70;100.00
19210;BME280;9738;51.654;14.238;2023-05-14T04:39:16;100867.81;;;7.73;100.00
19210;BME280;9738;51.654;14.238;2023-05-14T04:41:43;100872.03;;;7.76;100.00
19210;BME280;9738;51.654;14.238;2023-05-14T04:44:11;100873.47;;;7.80;100.00
19210;BME280;9738;51.654;14.238;2023-05-14T04:46:37;100878.44;;;7.84;100.00
19210;BME280;9738;51.654;14.238;2023-05-14T04:49:03;100864.88;;;7.88;100.00
19210;BME280;9738;51.654;14.238;2023-05-14T04:51:29;100872.50;;;7.92;100.00
19210;BME280;9738;51.654;14.238;2023-05-14T04:53:55;100873.22;;;7.94;100.00
19210;BME280;9738;51.654;14.238;2023-05-14T04:56:21;100877.31;;;7.98;100.00
19210;BME280;9738;51.654;14.238;2023-05-14T04:58:47;100883.13;;;8.03;100.00
19210;BME280;9738;51.654;14.238;2023-05-14T05:01:13;100881.19;;;8.05;100.00
19210;BME280;9738;51.654;14.238;2023-05-14T05:03:39;100878.16;;;8.10;100.00
19210;BME280;9738;51.654;14.238;2023-05-14T05:06:06;100878.72;;;8.13;100.00
19210;BME280;9738;51.654;14.238;2023-05-14T05:08:31;100881.03;;;8.18;100.00
19210;BME280;9738;51.654;14.238;2023-05-14T05:10:57;100878.84;;;8.23;100.00
19210;BME280;9738;51.654;14.238;2023-05-14T05:13:24;100879.19;;;8.30;100.00
19210;BME280;9738;51.654;14.238;2023-05-14T05:15:49;100880.41;;;8.37;100.00
19210;BME280;9738;51.654;14.238;2023-05-14T05:18:15;100877.22;;;8.43;100.00
19210;BME280;9738;51.654;14.238;2023-05-14T05:20:42;100881.91;;;8.51;100.00
19210;BME280;9738;51.654;14.238;2023-05-14T05:23:08;100875.00;;;8.59;100.00
19210;BME280;9738;51.654;14.238;2023-05-14T05:25:33;100874.22;;;8.69;100.00
19210;BME280;9738;51.654;14.238;2023-05-14T05:28:00;100867.88;;;8.81;100.00
19210;BME280;9738;51.654;14.238;2023-05-14T05:30:25;100872.03;;;8.94;100.00
19210;BME280;9738;51.654;14.238;2023-05-14T05:32:51;100865.50;;;9.08;100.00
19210;BME280;9738;51.654;14.238;2023-05-14T05:35:17;100858.16;;;9.21;100.00
19210;BME280;9738;51.654;14.238;2023-05-14T05:37:43;100861.03;;;9.39;100.00
19210;BME280;9738;51.654;14.238;2023-05-14T05:40:10;100846.25;;;9.56;100.00
19210;BME280;9738;51.654;14.238;2023-05-14T05:42:36;100849.25;;;9.72;100.00
19210;BME280;9738;51.654;14.238;2023-05-14T05:45:02;100845.13;;;9.99;100.00
19210;BME280;9738;51.654;14.238;2023-05-14T05:47:28;100839.81;;;10.18;100.00
19210;BME280;9738;51.654;14.238;2023-05-14T05:49:55;100848.81;;;10.37;100.00
19210;BME280;9738;51.654;14.238;2023-05-14T05:52:21;100852.22;;;10.39;100.00
19210;BME280;9738;51.654;14.238;2023-05-14T05:54:47;100852.19;;;10.48;100.00
19210;BME280;9738;51.654;14.238;2023-05-14T05:57:13;100845.88;;;10.59;100.00
19210;BME280;9738;51.654;14.238;2023-05-14T05:59:39;100846.56;;;10.61;100.00
19210;BME280;9738;51.654;14.238;2023-05-14T06:02:05;100849.97;;;10.63;100.00
19210;BME280;9738;51.654;14.238;2023-05-14T06:04:31;100852.34;;;10.66;100.00
19210;BME280;9738;51.654;14.238;2023-05-14T06:06:57;100845.75;;;10.70;100.00
19210;BME280;9738;51.654;14.238;2023-05-14T06:09:23;100849.25;;;10.71;100.00
19210;BME280;9738;51.654;14.238;2023-05-14T06:11:49;100849.22;;;10.80;100.00
19210;BME280;9738;51.654;14.238;2023-05-14T06:14:15;100852.16;;;10.97;100.00
19210;BME280;9738;51.654;14.238;2023-05-14T06:16:41;100860.78;;;11.37;100.00
19210;BME280;9738;51.654;14.238;2023-05-14T06:19:07;100852.47;;;11.68;100.00
19210;BME280;9738;51.654;14.238;2023-05-14T06:21:33;100847.66;;;11.81;100.00
19210;BME280;9738;51.654;14.238;2023-05-14T06:23:59;100848.44;;;11.92;100.00
19210;BME280;9738;51.654;14.238;2023-05-14T06:26:25;100850.94;;;12.03;100.00
19210;BME280;9738;51.654;14.238;2023-05-14T06:28:51;100850.00;;;12.12;100.00
19210;BME280;9738;51.654;14.238;2023-05-14T06:31:17;100852.25;;;12.16;100.00
19210;BME280;9738;51.654;14.238;2023-05-14T06:33:44;100853.31;;;12.24;100.00
19210;BME280;9738;51.654;14.238;2023-05-14T06:36:09;100852.09;;;12.36;100.00
19210;BME280;9738;51.654;14.238;2023-05-14T06:38:35;100856.25;;;12.48;100.00
19210;BME280;9738;51.654;14.238;2023-05-14T06:41:02;100856.13;;;12.58;100.00
19210;BME280;9738;51.654;14.238;2023-05-14T06:43:28;100854.22;;;12.68;100.00
19210;BME280;9738;51.654;14.238;2023-05-14T06:45:54;100859.50;;;12.78;100.00
19210;BME280;9738;51.654;14.238;2023-05-14T06:48:20;100854.66;;;12.81;100.00
19210;BME280;9738;51.654;14.238;2023-05-14T06:50:47;100847.34;;;12.91;100.00
19210;BME280;9738;51.654;14.238;2023-05-14T06:53:14;100846.03;;;13.13;100.00
19210;BME280;9738;51.654;14.238;2023-05-14T06:55:40;100846.03;;;13.39;100.00
19210;BME280;9738;51.654;14.238;2023-05-14T06:58:07;100837.50;;;13.86;100.00
19210;BME280;9738;51.654;14.238;2023-05-14T07:00:32;100834.94;;;14.27;100.00
19210;BME280;9738;51.654;14.238;2023-05-14T07:02:59;100833.31;;;14.58;100.00
19210;BME280;9738;51.654;14.238;2023-05-14T07:05:25;100834.66;;;14.95;100.00
19210;BME280;9738;51.654;14.238;2023-05-14T07:07:50;100834.44;;;15.21;100.00
19210;BME280;9738;51.654;14.238;2023-05-14T07:10:17;100832.94;;;15.58;100.00
19210;BME280;9738;51.654;14.238;2023-05-14T07:12:43;100827.88;;;16.02;100.00
19210;BME280;9738;51.654;14.238;2023-05-14T07:15:09;100821.56;;;16.41;100.00
19210;BME280;9738;51.654;14.238;2023-05-14T07:17:35;100833.13;;;16.72;100.00
19210;BME280;9738;51.654;14.238;2023-05-14T07:20:02;100824.78;;;17.05;100.00
19210;BME280;9738;51.654;14.238;2023-05-14T07:22:28;100815.94;;;17.26;100.00
19210;BME280;9738;51.654;14.238;2023-05-14T07:24:55;100811.25;;;17.49;100.00
19210;BME280;9738;51.654;14.238;2023-05-14T07:27:20;100800.00;;;17.75;100.00
19210;BME280;9738;51.654;14.238;2023-05-14T07:29:46;100803.47;;;18.05;100.00
19210;BME280;9738;51.654;14.238;2023-05-14T07:32:12;100792.72;;;18.12;83.82
19210;BME280;9738;51.654;14.238;2023-05-14T07:34:38;100793.03;;;18.24;80.83
19210;BME280;9738;51.654;14.238;2023-05-14T07:37:04;100793.13;;;18.52;82.08
19210;BME280;9738;51.654;14.238;2023-05-14T07:39:30;100789.63;;;18.79;79.36
19210;BME280;9738;51.654;14.238;2023-05-14T07:41:56;100785.69;;;19.10;79.64
19210;BME280;9738;51.654;14.238;2023-05-14T07:44:22;100786.19;;;19.27;71.02
19210;BME280;9738;51.654;14.238;2023-05-14T07:46:48;100779.78;;;19.34;72.63
19210;BME280;9738;51.654;14.238;2023-05-14T07:49:14;100779.75;;;19.28;67.74
19210;BME280;9738;51.654;14.238;2023-05-14T07:51:39;100772.13;;;19.44;65.71
19210;BME280;9738;51.654;14.238;2023-05-14T07:54:06;100761.97;;;19.53;61.49
19210;BME280;9738;51.654;14.238;2023-05-14T07:56:31;100771.06;;;19.45;62.20
19210;BME280;9738;51.654;14.238;2023-05-14T07:58:57;100759.44;;;19.52;62.12
19210;BME280;9738;51.654;14.238;2023-05-14T08:01:23;100765.34;;;19.62;62.11
19210;BME280;9738;51.654;14.238;2023-05-14T08:03:49;100763.41;;;19.56;60.34
19210;BME280;9738;51.654;14.238;2023-05-14T08:06:15;100759.00;;;19.41;59.37
19210;BME280;9738;51.654;14.238;2023-05-14T08:08:41;100765.88;;;19.51;56.67
19210;BME280;9738;51.654;14.238;2023-05-14T08:11:07;100758.28;;;19.61;60.57
19210;BME280;9738;51.654;14.238;2023-05-14T08:13:33;100756.97;;;19.57;57.56
19210;BME280;9738;51.654;14.238;2023-05-14T08:15:59;100757.66;;;19.72;57.98
19210;BME280;9738;51.654;14.238;2023-05-14T08:18:25;100758.59;;;19.99;55.57
19210;BME280;9738;51.654;14.238;2023-05-14T08:20:51;100751.53;;;20.18;57.35
19210;BME280;9738;51.654;14.238;2023-05-14T08:23:18;100750.03;;;20.09;54.39
19210;BME280;9738;51.654;14.238;2023-05-14T08:25:43;100750.03;;;19.95;54.12
19210;BME280;9738;51.654;14.238;2023-05-14T08:28:09;100746.06;;;19.91;54.65
19210;BME280;9738;51.654;14.238;2023-05-14T08:30:36;100738.38;;;20.21;54.69
19210;BME280;9738;51.654;14.238;2023-05-14T08:33:01;100737.81;;;20.52;54.74
19210;BME280;9738;51.654;14.238;2023-05-14T08:35:27;100741.31;;;20.79;52.79
19210;BME280;9738;51.654;14.238;2023-05-14T08:37:53;100734.84;;;20.87;53.45
19210;BME280;9738;51.654;14.238;2023-05-14T08:40:21;100732.28;;;21.05;55.00
19210;BME280;9738;51.654;14.238;2023-05-14T08:42:47;100728.72;;;21.31;51.96
19210;BME280;9738;51.654;14.238;2023-05-14T08:45:19;100722.38;;;21.44;48.54
19210;BME280;9738;51.654;14.238;2023-05-14T08:47:49;100724.22;;;21.57;50.23
19210;BME280;9738;51.654;14.238;2023-05-14T08:50:16;100716.38;;;21.74;50.17
19210;BME280;9738;51.654;14.238;2023-05-14T08:52:42;100719.66;;;21.89;49.95
19210;BME280;9738;51.654;14.238;2023-05-14T08:55:08;100719.31;;;21.72;48.35
19210;BME280;9738;51.654;14.238;2023-05-14T08:57:35;100719.69;;;21.31;51.09
19210;BME280;9738;51.654;14.238;2023-05-14T09:00:02;100721.59;;;21.30;49.54
19210;BME280;9738;51.654;14.238;2023-05-14T09:02:39;100716.56;;;21.34;50.54
19210;BME280;9738;51.654;14.238;2023-05-14T09:05:05;100724.34;;;21.11;49.23
19210;BME280;9738;51.654;14.238;2023-05-14T09:07:32;100718.44;;;21.27;49.67
19210;BME280;9738;51.654;14.238;2023-05-14T09:10:00;100714.69;;;21.35;49.38
19210;BME280;9738;51.654;14.238;2023-05-14T09:12:26;100717.75;;;21.51;50.42
19210;BME280;9738;51.654;14.238;2023-05-14T09:14:52;100713.75;;;21.92;49.56
19210;BME280;9738;51.654;14.238;2023-05-14T09:17:18;100715.75;;;22.10;47.16
19210;BME280;9738;51.654;14.238;2023-05-14T09:19:45;100713.25;;;22.08;43.20
19210;BME280;9738;51.654;14.238;2023-05-14T09:22:18;100709.94;;;22.00;42.70
19210;BME280;9738;51.654;14.238;2023-05-14T09:24:45;100699.22;;;21.73;41.87
19210;BME280;9738;51.654;14.238;2023-05-14T09:27:17;100704.78;;;21.53;44.95
19210;BME280;9738;51.654;14.238;2023-05-14T09:29:45;100703.53;;;21.49;47.46
19210;BME280;9738;51.654;14.238;2023-05-14T09:32:10;100696.41;;;21.55;44.72
19210;BME280;9738;51.654;14.238;2023-05-14T09:34:36;100694.88;;;21.66;42.76
19210;BME280;9738;51.654;14.238;2023-05-14T09:37:05;100691.56;;;21.95;43.74
19210;BME280;9738;51.654;14.238;2023-05-14T09:39:32;100691.59;;;22.20;42.49
19210;BME280;9738;51.654;14.238;2023-05-14T09:41:58;100680.28;;;22.48;43.29
19210;BME280;9738;51.654;14.238;2023-05-14T09:44:26;100683.47;;;22.63;42.33
19210;BME280;9738;51.654;14.238;2023-05-14T09:46:52;100679.63;;;22.53;43.41
19210;BME280;9738;51.654;14.238;2023-05-14T09:49:19;100683.13;;;22.35;39.92
19210;BME280;9738;51.654;14.238;2023-05-14T09:51:45;100676.97;;;22.21;42.86
19210;BME280;9738;51.654;14.238;2023-05-14T09:54:12;100675.13;;;22.15;42.11
19210;BME280;9738;51.654;14.238;2023-05-14T09:56:38;100672.41;;;21.83;38.11
19210;BME280;9738;51.654;14.238;2023-05-14T09:59:04;100666.75;;;21.85;39.04
19210;BME280;9738;51.654;14.238;2023-05-14T10:01:31;100665.06;;;21.84;40.72
19210;BME280;9738;51.654;14.238;2023-05-14T10:04:02;100664.75;;;21.67;38.62
19210;BME280;9738;51.654;14.238;2023-05-14T10:06:35;100658.59;;;21.85;41.26
19210;BME280;9738;51.654;14.238;2023-05-14T10:09:05;100651.25;;;22.17;42.42
19210;BME280;9738;51.654;14.238;2023-05-14T10:11:36;100647.09;;;22.15;41.33
19210;BME280;9738;51.654;14.238;2023-05-14T10:14:06;100646.16;;;22.27;45.61
19210;BME280;9738;51.654;14.238;2023-05-14T10:16:34;100645.25;;;22.33;37.41
19210;BME280;9738;51.654;14.238;2023-05-14T10:19:07;100637.97;;;22.52;39.61
19210;BME280;9738;51.654;14.238;2023-05-14T10:21:34;100633.50;;;22.76;43.47
19210;BME280;9738;51.654;14.238;2023-05-14T10:24:02;100637.66;;;22.79;42.79
19210;BME280;9738;51.654;14.238;2023-05-14T10:26:31;100636.00;;;22.78;41.66
19210;BME280;9738;51.654;14.238;2023-05-14T10:28:57;100625.44;;;22.88;38.27
19210;BME280;9738;51.654;14.238;2023-05-14T10:31:45;100629.97;;;22.94;40.69
19210;BME280;9738;51.654;14.238;2023-05-14T10:37:01;100618.44;;;23.29;38.49
19210;BME280;9738;51.654;14.238;2023-05-14T10:39:40;100609.16;;;23.48;41.48
19210;BME280;9738;51.654;14.238;2023-05-14T10:42:07;100614.22;;;23.75;40.16
19210;BME280;9738;51.654;14.238;2023-05-14T10:44:34;100605.22;;;23.74;36.13
19210;BME280;9738;51.654;14.238;2023-05-14T10:47:01;100598.66;;;23.63;37.34
19210;BME280;9738;51.654;14.238;2023-05-14T10:49:27;100596.56;;;23.77;36.60
19210;BME280;9738;51.654;14.238;2023-05-14T10:51:53;100600.47;;;23.81;39.64
19210;BME280;9738;51.654;14.238;2023-05-14T10:54:21;100595.38;;;23.85;36.36
19210;BME280;9738;51.654;14.238;2023-05-14T10:56:48;100598.69;;;23.75;36.51
19210;BME280;9738;51.654;14.238;2023-05-14T10:59:15;100595.00;;;23.69;39.03
19210;BME280;9738;51.654;14.238;2023-05-14T11:01:42;100591.00;;;23.84;36.48
19210;BME280;9738;51.654;14.238;2023-05-14T11:04:07;100591.09;;;23.77;37.28
19210;BME280;9738;51.654;14.238;2023-05-14T11:06:35;100591.09;;;23.77;36.47
19210;BME280;9738;51.654;14.238;2023-05-14T11:09:03;100594.75;;;23.71;35.20
19210;BME280;9738;51.654;14.238;2023-05-14T11:11:30;100586.47;;;23.78;38.10
19210;BME280;9738;51.654;14.238;2023-05-14T11:13:56;100587.00;;;23.56;37.15
19210;BME280;9738;51.654;14.238;2023-05-14T11:16:22;100584.53;;;23.25;36.64
19210;BME280;9738;51.654;14.238;2023-05-14T11:18:52;100583.88;;;22.74;36.39
19210;BME280;9738;51.654;14.238;2023-05-14T11:21:18;100577.75;;;22.42;38.34
19210;BME280;9738;51.654;14.238;2023-05-14T11:23:47;100572.53;;;22.22;41.12
19210;BME280;9738;51.654;14.238;2023-05-14T11:26:13;100582.66;;;22.08;40.51
19210;BME280;9738;51.654;14.238;2023-05-14T11:28:39;100577.94;;;21.97;43.68
19210;BME280;9738;51.654;14.238;2023-05-14T11:31:05;100580.25;;;21.69;43.32
19210;BME280;9738;51.654;14.238;2023-05-14T11:33:31;100570.81;;;21.46;43.71
19210;BME280;9738;51.654;14.238;2023-05-14T11:35:57;100572.00;;;21.19;43.08
19210;BME280;9738;51.654;14.238;2023-05-14T11:38:23;100571.88;;;21.07;42.40
19210;BME280;9738;51.654;14.238;2023-05-14T11:40:57;100568.31;;;21.07;45.65
19210;BME280;9738;51.654;14.238;2023-05-14T11:43:24;100567.06;;;21.02;48.65
19210;BME280;9738;51.654;14.238;2023-05-14T11:45:51;100562.91;;;21.00;45.48
19210;BME280;9738;51.654;14.238;2023-05-14T11:48:18;100552.13;;;20.87;46.02
19210;BME280;9738;51.654;14.238;2023-05-14T11:50:50;100557.94;;;20.90;46.61
19210;BME280;9738;51.654;14.238;2023-05-14T11:53:24;100555.44;;;20.89;43.86
19210;BME280;9738;51.654;14.238;2023-05-14T11:55:52;100550.41;;;20.92;44.09
19210;BME280;9738;51.654;14.238;2023-05-14T11:58:24;100551.22;;;20.99;45.33
19210;BME280;9738;51.654;14.238;2023-05-14T12:00:52;100551.75;;;21.15;43.00
19210;BME280;9738;51.654;14.238;2023-05-14T12:03:20;100551.69;;;21.28;44.81
19210;BME280;9738;51.654;14.238;2023-05-14T12:05:58;100551.47;;;21.29;44.57
19210;BME280;9738;51.654;14.238;2023-05-14T12:08:27;100551.13;;;21.19;42.46
19210;BME280;9738;51.654;14.238;2023-05-14T12:10:53;100544.09;;;20.98;43.68
19210;BME280;9738;51.654;14.238;2023-05-14T12:13:19;100552.97;;;20.74;43.80
19210;BME280;9738;51.654;14.238;2023-05-14T12:15:56;100548.47;;;20.55;45.05
19210;BME280;9738;51.654;14.238;2023-05-14T12:18:27;100550.16;;;20.42;45.34
19210;BME280;9738;51.654;14.238;2023-05-14T12:20:54;100551.66;;;20.25;46.74
19210;BME280;9738;51.654;14.238;2023-05-14T12:23:26;100552.53;;;20.12;47.11
19210;BME280;9738;51.654;14.238;2023-05-14T12:25:54;100557.13;;;20.05;49.80
19210;BME280;9738;51.654;14.238;2023-05-14T12:28:22;100551.91;;;19.84;48.64
19210;BME280;9738;51.654;14.238;2023-05-14T12:30:54;100552.34;;;19.74;50.65
19210;BME280;9738;51.654;14.238;2023-05-14T12:33:21;100557.13;;;19.65;47.97
19210;BME280;9738;51.654;14.238;2023-05-14T12:35:48;100551.50;;;19.67;49.35
19210;BME280;9738;51.654;14.238;2023-05-14T12:38:14;100549.59;;;19.54;47.28
19210;BME280;9738;51.654;14.238;2023-05-14T12:40:41;100544.63;;;19.58;47.79
19210;BME280;9738;51.654;14.238;2023-05-14T12:43:07;100538.97;;;19.59;48.62
19210;BME280;9738;51.654;14.238;2023-05-14T12:45:32;100549.63;;;19.61;50.84
19210;BME280;9738;51.654;14.238;2023-05-14T12:47:59;100535.63;;;19.51;50.43
19210;BME280;9738;51.654;14.238;2023-05-14T12:50:25;100539.38;;;19.43;51.17
19210;BME280;9738;51.654;14.238;2023-05-14T12:52:50;100539.38;;;19.36;51.50
19210;BME280;9738;51.654;14.238;2023-05-14T12:55:17;100535.16;;;19.34;51.94